sensor_id;sensor_type;location;lat;lon;timestamp;temperature;humidity
71514;DHT22;59335;46.652;21.272;2023-07-31T00:00:11;30.00;44.36
71514;DHT22;59335;46.652;21.272;2023-07-31T00:03:14;30.00;44.40
71514;DHT22;59335;46.652;21.272;2023-07-31T00:06:17;30.00;44.43
71514;DHT22;59335;46.652;21.272;2023-07-31T00:09:20;29.99;44.45
71514;DHT22;59335;46.652;21.272;2023-07-31T00:12:23;30.01;44.38
71514;DHT22;59335;46.652;21.272;2023-07-31T00:15:25;30.03;44.38
71514;DHT22;59335;46.652;21.272;2023-07-31T00:18:28;30.00;44.44
71514;DHT22;59335;46.652;21.272;2023-07-31T00:21:31;29.99;44.43
71514;DHT22;59335;46.652;21.272;2023-07-31T00:24:33;30.01;44.41
71514;DHT22;59335;46.652;21.272;2023-07-31T00:27:36;29.99;44.40
71514;DHT22;59335;46.652;21.272;2023-07-31T00:30:39;29.99;44.42
71514;DHT22;59335;46.652;21.272;2023-07-31T00:33:42;29.97;44.41
71514;DHT22;59335;46.652;21.272;2023-07-31T00:36:45;29.99;44.42
71514;DHT22;59335;46.652;21.272;2023-07-31T00:39:47;29.97;44.47
71514;DHT22;59335;46.652;21.272;2023-07-31T00:42:50;29.97;44.44
71514;DHT22;59335;46.652;21.272;2023-07-31T00:45:52;30.00;44.45
71514;DHT22;59335;46.652;21.272;2023-07-31T00:48:56;29.99;44.52
71514;DHT22;59335;46.652;21.272;2023-07-31T00:51:59;29.97;44.48
71514;DHT22;59335;46.652;21.272;2023-07-31T00:55:02;29.97;44.50
71514;DHT22;59335;46.652;21.272;2023-07-31T00:58:05;29.97;44.48
71514;DHT22;59335;46.652;21.272;2023-07-31T01:01:08;29.97;44.46
71514;DHT22;59335;46.652;21.272;2023-07-31T01:04:11;29.99;44.46
71514;DHT22;59335;46.652;21.272;2023-07-31T01:07:31;29.96;44.48
71514;DHT22;59335;46.652;21.272;2023-07-31T01:10:43;29.94;44.52
71514;DHT22;59335;46.652;21.272;2023-07-31T01:13:47;29.94;44.56
71514;DHT22;59335;46.652;21.272;2023-07-31T01:16:52;29.97;44.55
71514;DHT22;59335;46.652;21.272;2023-07-31T01:19:59;29.94;44.55
71514;DHT22;59335;46.652;21.272;2023-07-31T01:26:45;29.94;44.52
71514;DHT22;59335;46.652;21.272;2023-07-31T01:29:58;29.97;44.52
71514;DHT22;59335;46.652;21.272;2023-07-31T01:33:02;29.96;44.52
71514;DHT22;59335;46.652;21.272;2023-07-31T01:36:09;29.94;44.51
71514;DHT22;59335;46.652;21.272;2023-07-31T01:39:12;29.94;44.50
71514;DHT22;59335;46.652;21.272;2023-07-31T01:42:15;29.94;44.53
71514;DHT22;59335;46.652;21.272;2023-07-31T01:45:18;29.93;44.55
71514;DHT22;59335;46.652;21.272;2023-07-31T01:48:21;29.94;44.57
71514;DHT22;59335;46.652;21.272;2023-07-31T01:51:24;29.94;44.54
71514;DHT22;59335;46.652;21.272;2023-07-31T01:54:26;29.96;44.52
71514;DHT22;59335;46.652;21.272;2023-07-31T01:57:29;29.93;44.52
71514;DHT22;59335;46.652;21.272;2023-07-31T02:00:32;29.93;44.54
71514;DHT22;59335;46.652;21.272;2023-07-31T02:03:35;29.94;44.56
71514;DHT22;59335;46.652;21.272;2023-07-31T02:06:38;29.93;44.50
71514;DHT22;59335;46.652;21.272;2023-07-31T02:09:41;29.93;44.49
71514;DHT22;59335;46.652;21.272;2023-07-31T02:12:44;29.91;44.47
71514;DHT22;59335;46.652;21.272;2023-07-31T02:15:47;29.91;44.54
71514;DHT22;59335;46.652;21.272;2023-07-31T02:18:50;29.93;44.53
71514;DHT22;59335;46.652;21.272;2023-07-31T02:21:53;29.90;44.56
71514;DHT22;59335;46.652;21.272;2023-07-31T02:24:57;29.91;44.56
71514;DHT22;59335;46.652;21.272;2023-07-31T02:28:00;29.89;44.50
71514;DHT22;59335;46.652;21.272;2023-07-31T02:31:02;29.91;44.50
71514;DHT22;59335;46.652;21.272;2023-07-31T02:34:05;29.90;44.59
71514;DHT22;59335;46.652;21.272;2023-07-31T02:37:08;29.93;44.52
71514;DHT22;59335;46.652;21.272;2023-07-31T02:40:11;29.90;44.54
71514;DHT22;59335;46.652;21.272;2023-07-31T02:43:14;29.87;44.56
71514;DHT22;59335;46.652;21.272;2023-07-31T02:46:16;29.91;44.58
71514;DHT22;59335;46.652;21.272;2023-07-31T02:49:19;29.89;44.54
71514;DHT22;59335;46.652;21.272;2023-07-31T02:52:21;29.89;44.50
71514;DHT22;59335;46.652;21.272;2023-07-31T02:55:24;29.90;44.61
71514;DHT22;59335;46.652;21.272;2023-07-31T02:58:27;29.89;44.59
71514;DHT22;59335;46.652;21.272;2023-07-31T03:01:29;29.90;44.56
71514;DHT22;59335;46.652;21.272;2023-07-31T03:04:33;29.90;44.54
71514;DHT22;59335;46.652;21.272;2023-07-31T03:07:35;29.89;44.56
71514;DHT22;59335;46.652;21.272;2023-07-31T03:10:38;29.90;44.59
71514;DHT22;59335;46.652;21.272;2023-07-31T03:13:41;29.89;44.53
71514;DHT22;59335;46.652;21.272;2023-07-31T03:16:43;29.89;44.58
71514;DHT22;59335;46.652;21.272;2023-07-31T03:19:46;29.90;44.55
71514;DHT22;59335;46.652;21.272;2023-07-31T03:22:48;29.89;44.55
71514;DHT22;59335;46.652;21.272;2023-07-31T03:25:58;29.90;44.54
71514;DHT22;59335;46.652;21.272;2023-07-31T03:29:04;29.90;44.54
71514;DHT22;59335;46.652;21.272;2023-07-31T03:32:07;29.87;44.54
71514;DHT22;59335;46.652;21.272;2023-07-31T03:35:09;29.89;44.52
71514;DHT22;59335;46.652;21.272;2023-07-31T03:38:12;29.89;44.52
71514;DHT22;59335;46.652;21.272;2023-07-31T03:41:15;29.87;44.51
71514;DHT22;59335;46.652;21.272;2023-07-31T03:44:19;29.86;44.56
71514;DHT22;59335;46.652;21.272;2023-07-31T03:47:22;29.89;44.57
71514;DHT22;59335;46.652;21.272;2023-07-31T03:50:26;29.89;44.56
71514;DHT22;59335;46.652;21.272;2023-07-31T03:53:29;29.87;44.56
71514;DHT22;59335;46.652;21.272;2023-07-31T03:56:31;29.86;44.57
71514;DHT22;59335;46.652;21.272;2023-07-31T03:59:37;29.87;44.56
71514;DHT22;59335;46.652;21.272;2023-07-31T04:02:42;29.86;44.51
71514;DHT22;59335;46.652;21.272;2023-07-31T04:05:45;29.86;44.54
71514;DHT22;59335;46.652;21.272;2023-07-31T04:08:48;29.90;44.47
71514;DHT22;59335;46.652;21.272;2023-07-31T04:11:50;29.87;44.46
71514;DHT22;59335;46.652;21.272;2023-07-31T04:14:53;29.87;44.50
71514;DHT22;59335;46.652;21.272;2023-07-31T04:17:56;29.89;44.46
71514;DHT22;59335;46.652;21.272;2023-07-31T04:20:58;29.89;44.46
71514;DHT22;59335;46.652;21.272;2023-07-31T04:24:01;29.91;44.46
71514;DHT22;59335;46.652;21.272;2023-07-31T04:27:04;29.93;44.41
71514;DHT22;59335;46.652;21.272;2023-07-31T04:30:07;29.91;44.45
71514;DHT22;59335;46.652;21.272;2023-07-31T04:33:09;29.91;44.44
71514;DHT22;59335;46.652;21.272;2023-07-31T04:36:12;29.93;44.46
71514;DHT22;59335;46.652;21.272;2023-07-31T04:39:15;29.93;44.45
71514;DHT22;59335;46.652;21.272;2023-07-31T04:42:17;29.93;44.47
71514;DHT22;59335;46.652;21.272;2023-07-31T04:45:20;29.90;44.47
71514;DHT22;59335;46.652;21.272;2023-07-31T04:48:22;29.89;44.53
71514;DHT22;59335;46.652;21.272;2023-07-31T04:51:25;29.91;44.52
71514;DHT22;59335;46.652;21.272;2023-07-31T04:54:28;29.99;44.57
71514;DHT22;59335;46.652;21.272;2023-07-31T04:57:31;29.96;44.53
71514;DHT22;59335;46.652;21.272;2023-07-31T05:00:33;29.97;44.59
71514;DHT22;59335;46.652;21.272;2023-07-31T05:03:36;29.94;44.56
71514;DHT22;59335;46.652;21.272;2023-07-31T05:06:39;30.01;44.49
71514;DHT22;59335;46.652;21.272;2023-07-31T05:09:42;30.03;44.50
71514;DHT22;59335;46.652;21.272;2023-07-31T05:12:44;30.01;44.48
71514;DHT22;59335;46.652;21.272;2023-07-31T05:15:47;30.06;44.47
71514;DHT22;59335;46.652;21.272;2023-07-31T05:18:51;30.06;44.53
71514;DHT22;59335;46.652;21.272;2023-07-31T05:21:54;30.10;44.50
71514;DHT22;59335;46.652;21.272;2023-07-31T05:24:57;30.17;44.46
71514;DHT22;59335;46.652;21.272;2023-07-31T05:27:59;30.13;44.69
71514;DHT22;59335;46.652;21.272;2023-07-31T05:31:03;30.13;45.01
71514;DHT22;59335;46.652;21.272;2023-07-31T05:34:06;30.16;44.88
71514;DHT22;59335;46.652;21.272;2023-07-31T05:37:10;30.17;44.79
71514;DHT22;59335;46.652;21.272;2023-07-31T05:40:14;30.18;44.42
71514;DHT22;59335;46.652;21.272;2023-07-31T05:43:17;30.18;44.44
71514;DHT22;59335;46.652;21.272;2023-07-31T05:46:19;30.21;44.13
71514;DHT22;59335;46.652;21.272;2023-07-31T05:49:22;30.24;43.97
71514;DHT22;59335;46.652;21.272;2023-07-31T05:52:25;30.27;43.88
71514;DHT22;59335;46.652;21.272;2023-07-31T05:55:27;30.27;43.93
71514;DHT22;59335;46.652;21.272;2023-07-31T05:58:30;30.27;44.22
71514;DHT22;59335;46.652;21.272;2023-07-31T06:01:33;30.29;44.29
71514;DHT22;59335;46.652;21.272;2023-07-31T06:04:35;30.31;44.23
71514;DHT22;59335;46.652;21.272;2023-07-31T06:07:38;30.31;44.03
71514;DHT22;59335;46.652;21.272;2023-07-31T06:10:41;30.32;44.14
71514;DHT22;59335;46.652;21.272;2023-07-31T06:13:44;30.32;43.88
71514;DHT22;59335;46.652;21.272;2023-07-31T06:16:47;30.37;43.92
71514;DHT22;59335;46.652;21.272;2023-07-31T06:19:50;30.39;43.90
71514;DHT22;59335;46.652;21.272;2023-07-31T06:22:53;30.41;43.97
71514;DHT22;59335;46.652;21.272;2023-07-31T06:25:55;30.42;43.92
71514;DHT22;59335;46.652;21.272;2023-07-31T06:28:58;30.47;43.96
71514;DHT22;59335;46.652;21.272;2023-07-31T06:32:01;30.48;44.02
71514;DHT22;59335;46.652;21.272;2023-07-31T06:35:05;30.48;44.03
71514;DHT22;59335;46.652;21.272;2023-07-31T06:38:08;30.54;44.05
71514;DHT22;59335;46.652;21.272;2023-07-31T06:41:11;30.54;44.00
71514;DHT22;59335;46.652;21.272;2023-07-31T06:44:13;30.55;43.97
71514;DHT22;59335;46.652;21.272;2023-07-31T06:47:16;30.56;43.98
71514;DHT22;59335;46.652;21.272;2023-07-31T06:50:20;30.58;43.99
71514;DHT22;59335;46.652;21.272;2023-07-31T06:53:22;30.55;43.93
71514;DHT22;59335;46.652;21.272;2023-07-31T06:56:25;30.55;44.01
71514;DHT22;59335;46.652;21.272;2023-07-31T06:59:28;30.59;44.03
71514;DHT22;59335;46.652;21.272;2023-07-31T07:02:31;30.59;44.04
71514;DHT22;59335;46.652;21.272;2023-07-31T07:05:34;30.62;44.09
71514;DHT22;59335;46.652;21.272;2023-07-31T07:08:37;30.61;44.08
71514;DHT22;59335;46.652;21.272;2023-07-31T07:11:39;30.62;44.07
71514;DHT22;59335;46.652;21.272;2023-07-31T07:14:42;30.66;44.13
71514;DHT22;59335;46.652;21.272;2023-07-31T07:17:45;30.68;44.21
71514;DHT22;59335;46.652;21.272;2023-07-31T07:20:52;30.68;44.25
71514;DHT22;59335;46.652;21.272;2023-07-31T07:23:55;30.72;44.21
71514;DHT22;59335;46.652;21.272;2023-07-31T07:26:57;30.68;44.29
71514;DHT22;59335;46.652;21.272;2023-07-31T07:30:00;30.68;44.32
71514;DHT22;59335;46.652;21.272;2023-07-31T07:33:03;30.71;44.35
71514;DHT22;59335;46.652;21.272;2023-07-31T07:36:06;30.66;44.45
71514;DHT22;59335;46.652;21.272;2023-07-31T07:39:12;30.65;44.49
71514;DHT22;59335;46.652;21.272;2023-07-31T07:42:15;30.66;44.55
71514;DHT22;59335;46.652;21.272;2023-07-31T07:45:17;30.66;44.55
71514;DHT22;59335;46.652;21.272;2023-07-31T07:48:21;30.68;44.62
71514;DHT22;59335;46.652;21.272;2023-07-31T07:51:24;30.69;44.64
71514;DHT22;59335;46.652;21.272;2023-07-31T07:54:27;30.71;44.64
71514;DHT22;59335;46.652;21.272;2023-07-31T07:57:29;30.68;44.65
71514;DHT22;59335;46.652;21.272;2023-07-31T08:00:33;30.69;44.66
71514;DHT22;59335;46.652;21.272;2023-07-31T08:03:35;30.66;44.75
71514;DHT22;59335;46.652;21.272;2023-07-31T08:06:38;30.69;44.73
71514;DHT22;59335;46.652;21.272;2023-07-31T08:09:41;30.68;44.71
71514;DHT22;59335;46.652;21.272;2023-07-31T08:12:44;30.66;44.79
71514;DHT22;59335;46.652;21.272;2023-07-31T08:15:47;30.66;44.79
71514;DHT22;59335;46.652;21.272;2023-07-31T08:18:49;30.68;44.82
71514;DHT22;59335;46.652;21.272;2023-07-31T08:21:52;30.68;44.83
71514;DHT22;59335;46.652;21.272;2023-07-31T08:24:59;30.69;44.90
71514;DHT22;59335;46.652;21.272;2023-07-31T08:28:03;30.71;44.86
71514;DHT22;59335;46.652;21.272;2023-07-31T08:31:07;30.69;44.84
71514;DHT22;59335;46.652;21.272;2023-07-31T08:34:09;30.75;44.88
71514;DHT22;59335;46.652;21.272;2023-07-31T08:37:12;30.75;44.83
71514;DHT22;59335;46.652;21.272;2023-07-31T08:40:15;30.75;44.84
71514;DHT22;59335;46.652;21.272;2023-07-31T08:43:18;30.78;44.87
71514;DHT22;59335;46.652;21.272;2023-07-31T08:46:23;30.75;44.88
71514;DHT22;59335;46.652;21.272;2023-07-31T08:49:26;30.75;44.94
71514;DHT22;59335;46.652;21.272;2023-07-31T08:52:28;30.74;44.88
71514;DHT22;59335;46.652;21.272;2023-07-31T08:55:32;30.76;44.91
71514;DHT22;59335;46.652;21.272;2023-07-31T08:58:35;30.76;44.95
71514;DHT22;59335;46.652;21.272;2023-07-31T09:01:43;30.75;44.92
71514;DHT22;59335;46.652;21.272;2023-07-31T09:04:49;30.75;44.92
71514;DHT22;59335;46.652;21.272;2023-07-31T09:07:51;30.76;44.96
71514;DHT22;59335;46.652;21.272;2023-07-31T09:10:59;30.76;44.92
71514;DHT22;59335;46.652;21.272;2023-07-31T09:14:02;30.76;44.92
71514;DHT22;59335;46.652;21.272;2023-07-31T09:17:11;30.76;44.98
71514;DHT22;59335;46.652;21.272;2023-07-31T09:20:21;30.76;44.98
71514;DHT22;59335;46.652;21.272;2023-07-31T09:23:24;30.76;44.99
71514;DHT22;59335;46.652;21.272;2023-07-31T09:26:33;30.74;44.96
71514;DHT22;59335;46.652;21.272;2023-07-31T09:29:36;30.75;45.01
71514;DHT22;59335;46.652;21.272;2023-07-31T09:32:39;30.72;45.00
71514;DHT22;59335;46.652;21.272;2023-07-31T09:35:42;30.71;45.02
71514;DHT22;59335;46.652;21.272;2023-07-31T09:38:44;30.72;45.06
71514;DHT22;59335;46.652;21.272;2023-07-31T09:41:54;30.71;45.05
71514;DHT22;59335;46.652;21.272;2023-07-31T09:45:07;30.72;45.09
71514;DHT22;59335;46.652;21.272;2023-07-31T09:48:14;30.72;45.07
71514;DHT22;59335;46.652;21.272;2023-07-31T09:51:26;30.69;45.06
71514;DHT22;59335;46.652;21.272;2023-07-31T09:54:29;30.69;45.14
71514;DHT22;59335;46.652;21.272;2023-07-31T09:57:33;30.65;45.32
71514;DHT22;59335;46.652;21.272;2023-07-31T10:00:36;30.66;45.26
71514;DHT22;59335;46.652;21.272;2023-07-31T10:03:40;30.65;45.22
71514;DHT22;59335;46.652;21.272;2023-07-31T10:06:44;30.66;45.28
71514;DHT22;59335;46.652;21.272;2023-07-31T10:09:48;30.65;45.29
71514;DHT22;59335;46.652;21.272;2023-07-31T10:12:53;30.64;45.32
71514;DHT22;59335;46.652;21.272;2023-07-31T10:15:59;30.64;45.35
71514;DHT22;59335;46.652;21.272;2023-07-31T10:19:05;30.61;45.41
71514;DHT22;59335;46.652;21.272;2023-07-31T10:22:07;30.62;45.42
71514;DHT22;59335;46.652;21.272;2023-07-31T10:25:18;30.65;45.39
71514;DHT22;59335;46.652;21.272;2023-07-31T10:28:22;30.62;45.42
71514;DHT22;59335;46.652;21.272;2023-07-31T10:31:26;30.64;45.40
71514;DHT22;59335;46.652;21.272;2023-07-31T10:34:30;30.62;45.46
71514;DHT22;59335;46.652;21.272;2023-07-31T10:37:41;30.62;45.38
71514;DHT22;59335;46.652;21.272;2023-07-31T10:40:49;30.62;45.42
71514;DHT22;59335;46.652;21.272;2023-07-31T10:43:54;30.62;45.42
71514;DHT22;59335;46.652;21.272;2023-07-31T10:47:00;30.59;45.44
71514;DHT22;59335;46.652;21.272;2023-07-31T10:50:17;30.61;45.54
71514;DHT22;59335;46.652;21.272;2023-07-31T10:56:26;30.58;45.56
71514;DHT22;59335;46.652;21.272;2023-07-31T10:59:34;30.59;45.50
71514;DHT22;59335;46.652;21.272;2023-07-31T11:02:37;30.61;45.58
71514;DHT22;59335;46.652;21.272;2023-07-31T11:05:50;30.56;45.56
71514;DHT22;59335;46.652;21.272;2023-07-31T11:08:53;30.56;45.58
71514;DHT22;59335;46.652;21.272;2023-07-31T11:11:56;30.56;45.59
71514;DHT22;59335;46.652;21.272;2023-07-31T11:14:58;30.56;45.63
71514;DHT22;59335;46.652;21.272;2023-07-31T11:18:01;30.56;45.56
71514;DHT22;59335;46.652;21.272;2023-07-31T11:21:15;30.58;45.59
71514;DHT22;59335;46.652;21.272;2023-07-31T11:24:19;30.56;45.53
71514;DHT22;59335;46.652;21.272;2023-07-31T11:27:21;30.56;45.55
71514;DHT22;59335;46.652;21.272;2023-07-31T11:30:24;30.56;45.59
71514;DHT22;59335;46.652;21.272;2023-07-31T11:33:27;30.56;45.57
71514;DHT22;59335;46.652;21.272;2023-07-31T11:36:30;30.54;45.55
71514;DHT22;59335;46.652;21.272;2023-07-31T11:39:32;30.56;45.59
71514;DHT22;59335;46.652;21.272;2023-07-31T11:42:36;30.56;45.59
71514;DHT22;59335;46.652;21.272;2023-07-31T11:45:39;30.55;45.56
71514;DHT22;59335;46.652;21.272;2023-07-31T11:48:42;30.55;45.59
71514;DHT22;59335;46.652;21.272;2023-07-31T11:51:45;30.55;45.57
71514;DHT22;59335;46.652;21.272;2023-07-31T11:54:48;30.55;45.57
71514;DHT22;59335;46.652;21.272;2023-07-31T11:57:52;30.54;45.60
71514;DHT22;59335;46.652;21.272;2023-07-31T12:00:56;30.55;45.60
71514;DHT22;59335;46.652;21.272;2023-07-31T12:04:00;30.54;45.62
71514;DHT22;59335;46.652;21.272;2023-07-31T12:07:03;30.54;45.56
71514;DHT22;59335;46.652;21.272;2023-07-31T12:10:06;30.52;45.59
71514;DHT22;59335;46.652;21.272;2023-07-31T12:13:19;30.54;45.59
71514;DHT22;59335;46.652;21.272;2023-07-31T12:16:26;30.52;45.61
71514;DHT22;59335;46.652;21.272;2023-07-31T12:19:29;30.52;45.67
71514;DHT22;59335;46.652;21.272;2023-07-31T12:22:33;30.51;45.62
71514;DHT22;59335;46.652;21.272;2023-07-31T12:25:36;30.51;45.62
71514;DHT22;59335;46.652;21.272;2023-07-31T12:28:46;30.49;45.61
71514;DHT22;59335;46.652;21.272;2023-07-31T12:31:49;30.51;45.62
71514;DHT22;59335;46.652;21.272;2023-07-31T12:34:52;30.49;45.63
71514;DHT22;59335;46.652;21.272;2023-07-31T12:37:54;30.51;45.63
71514;DHT22;59335;46.652;21.272;2023-07-31T12:40:58;30.48;45.58
71514;DHT22;59335;46.652;21.272;2023-07-31T12:44:01;30.49;45.59
71514;DHT22;59335;46.652;21.272;2023-07-31T12:47:03;30.51;45.62
71514;DHT22;59335;46.652;21.272;2023-07-31T12:50:07;30.51;45.62
71514;DHT22;59335;46.652;21.272;2023-07-31T12:53:10;30.49;45.59
71514;DHT22;59335;46.652;21.272;2023-07-31T12:56:12;30.48;45.59
71514;DHT22;59335;46.652;21.272;2023-07-31T12:59:15;30.48;45.67
71514;DHT22;59335;46.652;21.272;2023-07-31T13:02:18;30.48;45.53
71514;DHT22;59335;46.652;21.272;2023-07-31T13:05:23;30.48;45.59
71514;DHT22;59335;46.652;21.272;2023-07-31T13:08:25;30.48;45.67
71514;DHT22;59335;46.652;21.272;2023-07-31T13:11:28;30.47;45.61
71514;DHT22;59335;46.652;21.272;2023-07-31T13:14:31;30.47;45.63
71514;DHT22;59335;46.652;21.272;2023-07-31T13:17:33;30.48;45.63
71514;DHT22;59335;46.652;21.272;2023-07-31T13:20:36;30.47;45.63
71514;DHT22;59335;46.652;21.272;2023-07-31T13:23:39;30.44;45.64
71514;DHT22;59335;46.652;21.272;2023-07-31T13:26:41;30.45;45.63
71514;DHT22;59335;46.652;21.272;2023-07-31T13:29:45;30.45;45.70
71514;DHT22;59335;46.652;21.272;2023-07-31T13:32:47;30.45;45.61
71514;DHT22;59335;46.652;21.272;2023-07-31T13:35:50;30.45;45.61
71514;DHT22;59335;46.652;21.272;2023-07-31T13:38:53;30.45;45.63
71514;DHT22;59335;46.652;21.272;2023-07-31T13:41:55;30.45;45.64
71514;DHT22;59335;46.652;21.272;2023-07-31T13:44:58;30.45;45.63
71514;DHT22;59335;46.652;21.272;2023-07-31T13:48:01;30.45;45.61
71514;DHT22;59335;46.652;21.272;2023-07-31T13:51:03;30.44;45.57
71514;DHT22;59335;46.652;21.272;2023-07-31T13:54:06;30.45;45.60
71514;DHT22;59335;46.652;21.272;2023-07-31T13:57:09;30.42;45.56
71514;DHT22;59335;46.652;21.272;2023-07-31T14:00:13;30.42;45.57
71514;DHT22;59335;46.652;21.272;2023-07-31T14:03:15;30.44;45.59
71514;DHT22;59335;46.652;21.272;2023-07-31T14:06:19;30.41;45.57
71514;DHT22;59335;46.652;21.272;2023-07-31T14:09:21;30.41;45.61
71514;DHT22;59335;46.652;21.272;2023-07-31T14:12:24;30.39;45.58
71514;DHT22;59335;46.652;21.272;2023-07-31T14:15:33;30.41;45.65
71514;DHT22;59335;46.652;21.272;2023-07-31T14:18:38;30.42;45.55
71514;DHT22;59335;46.652;21.272;2023-07-31T14:21:41;30.42;45.53
71514;DHT22;59335;46.652;21.272;2023-07-31T14:24:43;30.42;45.61
71514;DHT22;59335;46.652;21.272;2023-07-31T14:27:48;30.42;45.57
71514;DHT22;59335;46.652;21.272;2023-07-31T14:30:51;30.41;45.61
71514;DHT22;59335;46.652;21.272;2023-07-31T14:33:54;30.39;45.58
71514;DHT22;59335;46.652;21.272;2023-07-31T14:36:59;30.41;45.58
71514;DHT22;59335;46.652;21.272;2023-07-31T14:40:02;30.41;45.55
71514;DHT22;59335;46.652;21.272;2023-07-31T14:43:05;30.39;45.49
71514;DHT22;59335;46.652;21.272;2023-07-31T14:46:07;30.41;45.47
71514;DHT22;59335;46.652;21.272;2023-07-31T14:49:10;30.39;45.49
71514;DHT22;59335;46.652;21.272;2023-07-31T14:52:13;30.38;45.46
71514;DHT22;59335;46.652;21.272;2023-07-31T14:55:16;30.38;45.46
71514;DHT22;59335;46.652;21.272;2023-07-31T14:58:18;30.38;45.43
71514;DHT22;59335;46.652;21.272;2023-07-31T15:01:21;30.38;45.45
71514;DHT22;59335;46.652;21.272;2023-07-31T15:04:24;30.37;45.49
71514;DHT22;59335;46.652;21.272;2023-07-31T15:07:27;30.39;45.43
71514;DHT22;59335;46.652;21.272;2023-07-31T15:10:29;30.35;45.46
71514;DHT22;59335;46.652;21.272;2023-07-31T15:13:32;30.37;45.41
71514;DHT22;59335;46.652;21.272;2023-07-31T15:16:35;30.37;45.46
71514;DHT22;59335;46.652;21.272;2023-07-31T15:19:37;30.37;45.46
71514;DHT22;59335;46.652;21.272;2023-07-31T15:22:40;30.35;45.45
71514;DHT22;59335;46.652;21.272;2023-07-31T15:25:43;30.38;45.47
71514;DHT22;59335;46.652;21.272;2023-07-31T15:28:50;30.37;45.44
71514;DHT22;59335;46.652;21.272;2023-07-31T15:31:58;30.37;45.45
71514;DHT22;59335;46.652;21.272;2023-07-31T15:35:01;30.35;45.45
71514;DHT22;59335;46.652;21.272;2023-07-31T15:38:03;30.32;45.45
71514;DHT22;59335;46.652;21.272;2023-07-31T15:41:06;30.37;45.48
71514;DHT22;59335;46.652;21.272;2023-07-31T15:44:09;30.35;45.39
71514;DHT22;59335;46.652;21.272;2023-07-31T15:47:12;30.35;45.42
71514;DHT22;59335;46.652;21.272;2023-07-31T15:50:15;30.34;45.39
71514;DHT22;59335;46.652;21.272;2023-07-31T15:53:17;30.32;45.41
71514;DHT22;59335;46.652;21.272;2023-07-31T15:56:20;30.32;45.39
71514;DHT22;59335;46.652;21.272;2023-07-31T15:59:22;30.32;45.42
71514;DHT22;59335;46.652;21.272;2023-07-31T16:02:25;30.32;45.39
71514;DHT22;59335;46.652;21.272;2023-07-31T16:05:28;30.32;45.42
71514;DHT22;59335;46.652;21.272;2023-07-31T16:08:30;30.29;45.35
71514;DHT22;59335;46.652;21.272;2023-07-31T16:11:33;30.32;45.38
71514;DHT22;59335;46.652;21.272;2023-07-31T16:14:36;30.31;45.36
71514;DHT22;59335;46.652;21.272;2023-07-31T16:17:38;30.31;45.38
71514;DHT22;59335;46.652;21.272;2023-07-31T16:20:41;30.31;45.36
71514;DHT22;59335;46.652;21.272;2023-07-31T16:23:44;30.32;45.34
71514;DHT22;59335;46.652;21.272;2023-07-31T16:26:46;30.29;45.40
71514;DHT22;59335;46.652;21.272;2023-07-31T16:29:49;30.29;45.33
71514;DHT22;59335;46.652;21.272;2023-07-31T16:32:52;30.29;45.32
71514;DHT22;59335;46.652;21.272;2023-07-31T16:35:55;30.29;45.29
71514;DHT22;59335;46.652;21.272;2023-07-31T16:38:57;30.31;45.31
71514;DHT22;59335;46.652;21.272;2023-07-31T16:42:04;30.29;45.26
71514;DHT22;59335;46.652;21.272;2023-07-31T16:45:07;30.27;45.29
71514;DHT22;59335;46.652;21.272;2023-07-31T16:48:10;30.27;45.26
71514;DHT22;59335;46.652;21.272;2023-07-31T16:51:13;30.28;45.25
71514;DHT22;59335;46.652;21.272;2023-07-31T16:54:16;30.28;45.18
71514;DHT22;59335;46.652;21.272;2023-07-31T16:57:19;30.29;45.21
71514;DHT22;59335;46.652;21.272;2023-07-31T17:00:23;30.28;45.18
71514;DHT22;59335;46.652;21.272;2023-07-31T17:03:26;30.29;45.14
71514;DHT22;59335;46.652;21.272;2023-07-31T17:06:29;30.25;45.06
71514;DHT22;59335;46.652;21.272;2023-07-31T17:09:32;30.25;45.02
71514;DHT22;59335;46.652;21.272;2023-07-31T17:12:35;30.24;45.06
71514;DHT22;59335;46.652;21.272;2023-07-31T17:15:37;30.27;45.07
71514;DHT22;59335;46.652;21.272;2023-07-31T17:18:40;30.25;45.03
71514;DHT22;59335;46.652;21.272;2023-07-31T17:21:43;30.25;45.01
71514;DHT22;59335;46.652;21.272;2023-07-31T17:24:45;30.25;44.98
71514;DHT22;59335;46.652;21.272;2023-07-31T17:27:48;30.24;44.93
71514;DHT22;59335;46.652;21.272;2023-07-31T17:30:54;30.24;44.88
71514;DHT22;59335;46.652;21.272;2023-07-31T17:33:57;30.24;44.87
71514;DHT22;59335;46.652;21.272;2023-07-31T17:37:00;30.24;44.87
71514;DHT22;59335;46.652;21.272;2023-07-31T17:40:04;30.23;44.77
71514;DHT22;59335;46.652;21.272;2023-07-31T17:43:08;30.21;44.79
71514;DHT22;59335;46.652;21.272;2023-07-31T17:46:11;30.23;44.77
71514;DHT22;59335;46.652;21.272;2023-07-31T17:49:14;30.20;44.83
71514;DHT22;59335;46.652;21.272;2023-07-31T17:52:17;30.20;44.76
71514;DHT22;59335;46.652;21.272;2023-07-31T17:55:20;30.20;44.74
71514;DHT22;59335;46.652;21.272;2023-07-31T17:58:23;30.21;44.80
71514;DHT22;59335;46.652;21.272;2023-07-31T18:01:26;30.18;44.76
71514;DHT22;59335;46.652;21.272;2023-07-31T18:04:29;30.21;44.76
71514;DHT22;59335;46.652;21.272;2023-07-31T18:07:33;30.20;44.77
71514;DHT22;59335;46.652;21.272;2023-07-31T18:10:43;30.18;44.79
71514;DHT22;59335;46.652;21.272;2023-07-31T18:13:47;30.18;44.73
71514;DHT22;59335;46.652;21.272;2023-07-31T18:16:51;30.17;44.77
71514;DHT22;59335;46.652;21.272;2023-07-31T18:19:54;30.16;44.75
71514;DHT22;59335;46.652;21.272;2023-07-31T18:22:57;30.16;44.68
71514;DHT22;59335;46.652;21.272;2023-07-31T18:26:00;30.16;44.76
71514;DHT22;59335;46.652;21.272;2023-07-31T18:29:03;30.14;44.69
71514;DHT22;59335;46.652;21.272;2023-07-31T18:32:07;30.16;44.68
71514;DHT22;59335;46.652;21.272;2023-07-31T18:35:11;30.16;44.69
71514;DHT22;59335;46.652;21.272;2023-07-31T18:38:16;30.14;44.69
71514;DHT22;59335;46.652;21.272;2023-07-31T18:41:19;30.13;44.73
71514;DHT22;59335;46.652;21.272;2023-07-31T18:44:22;30.14;44.65
71514;DHT22;59335;46.652;21.272;2023-07-31T18:47:25;30.13;44.73
71514;DHT22;59335;46.652;21.272;2023-07-31T18:50:28;30.11;44.68
71514;DHT22;59335;46.652;21.272;2023-07-31T18:53:32;30.11;44.65
71514;DHT22;59335;46.652;21.272;2023-07-31T18:56:35;30.11;44.67
71514;DHT22;59335;46.652;21.272;2023-07-31T18:59:39;30.08;44.70
71514;DHT22;59335;46.652;21.272;2023-07-31T19:02:42;30.08;44.60
71514;DHT22;59335;46.652;21.272;2023-07-31T19:05:45;30.10;44.65